NLWF

Details ICAO NLWF (FUT)
Name Point Vele
Region Wallis and Futuna
Timezone Unknown (UTC+0.0)
Plans Departing 1
Arriving 1
Stats Elevation 20 ft / 6 m (AMSL)
Location -14.311464° -178.066110°
Runways 1
Magnetic Variation 11.757° E
Sunrise 2018-05-21 18:08:16 UTC / 2018-05-21 18:08:16 Local
Sunset 2018-05-22 05:32:22 UTC / 2018-05-22 05:32:22 Local
Advertisement - Login to hide

Runways

ID Width Length Bearing (true) Bearing (mag) Surface Threshold Offset Overrun Length
08 141 ft / 43 m 4,006 ft / 1,221 m 83.70° 71.94° Grass 0 ft / 0 m 0 ft / 0 m
26 141 ft / 43 m 4,006 ft / 1,221 m 263.70° 251.94° Grass 0 ft / 0 m 0 ft / 0 m

Map

Weather


0- 5 10 15 20 25 30 35+ Temperature / ° C

Clouds and Precipitation
Forecast for 2018-05-21 18:00 UTC. Updated 22 minutes ago

Ground ~20,000 ft ~40,000 ft Winds

METAR

Not found

TAF

TAF NLWF 211100Z 2112/2212 10012KT 9999 SCT020 PROB30 TEMPO 2112/2206 4000 SHRA FEW025TCU
Warning: Do not use this data for real-world aviation or navigation. No guarantee of current accuracy is given.